sensor_id;sensor_type;location;lat;lon;timestamp;temperature;humidity
20654;DHT22;21083;50.898;4.902;2024-01-16T00:02:18;1.40;99.90
20654;DHT22;21083;50.898;4.902;2024-01-16T00:04:45;1.40;99.90
20654;DHT22;21083;50.898;4.902;2024-01-16T00:07:13;1.30;99.90
20654;DHT22;21083;50.898;4.902;2024-01-16T00:09:41;1.30;99.90
20654;DHT22;21083;50.898;4.902;2024-01-16T00:12:08;1.20;99.90
20654;DHT22;21083;50.898;4.902;2024-01-16T00:14:36;1.20;99.90
20654;DHT22;21083;50.898;4.902;2024-01-16T00:17:03;1.20;99.90
20654;DHT22;21083;50.898;4.902;2024-01-16T00:19:30;1.10;99.90
20654;DHT22;21083;50.898;4.902;2024-01-16T00:21:57;1.00;99.90
20654;DHT22;21083;50.898;4.902;2024-01-16T00:24:27;1.20;99.90
20654;DHT22;21083;50.898;4.902;2024-01-16T00:26:56;1.20;99.90
20654;DHT22;21083;50.898;4.902;2024-01-16T00:29:23;1.20;99.90
20654;DHT22;21083;50.898;4.902;2024-01-16T00:31:50;1.30;99.90
20654;DHT22;21083;50.898;4.902;2024-01-16T00:34:19;1.40;99.90
20654;DHT22;21083;50.898;4.902;2024-01-16T00:36:47;1.40;99.90
20654;DHT22;21083;50.898;4.902;2024-01-16T00:39:14;1.40;99.90
20654;DHT22;21083;50.898;4.902;2024-01-16T00:41:41;1.50;99.90
20654;DHT22;21083;50.898;4.902;2024-01-16T00:44:09;1.60;99.90
20654;DHT22;21083;50.898;4.902;2024-01-16T00:46:37;1.50;99.90
20654;DHT22;21083;50.898;4.902;2024-01-16T00:49:04;1.40;99.90
20654;DHT22;21083;50.898;4.902;2024-01-16T00:51:32;1.40;99.90
20654;DHT22;21083;50.898;4.902;2024-01-16T00:54:00;1.40;99.90
20654;DHT22;21083;50.898;4.902;2024-01-16T00:56:27;1.40;99.90
20654;DHT22;21083;50.898;4.902;2024-01-16T00:58:57;1.50;99.90
20654;DHT22;21083;50.898;4.902;2024-01-16T01:01:24;1.60;99.90
20654;DHT22;21083;50.898;4.902;2024-01-16T01:03:51;1.60;99.90
20654;DHT22;21083;50.898;4.902;2024-01-16T01:06:19;1.60;99.90
20654;DHT22;21083;50.898;4.902;2024-01-16T01:08:46;1.30;99.90
20654;DHT22;21083;50.898;4.902;2024-01-16T01:11:13;1.30;99.90
20654;DHT22;21083;50.898;4.902;2024-01-16T01:13:43;1.20;99.90
20654;DHT22;21083;50.898;4.902;2024-01-16T01:16:17;1.10;99.90
20654;DHT22;21083;50.898;4.902;2024-01-16T01:18:44;1.20;99.90
20654;DHT22;21083;50.898;4.902;2024-01-16T01:21:11;1.20;99.90
20654;DHT22;21083;50.898;4.902;2024-01-16T01:23:38;1.30;99.90
20654;DHT22;21083;50.898;4.902;2024-01-16T01:26:06;1.30;99.90
20654;DHT22;21083;50.898;4.902;2024-01-16T01:28:34;1.30;99.90
20654;DHT22;21083;50.898;4.902;2024-01-16T01:31:02;1.20;99.90
20654;DHT22;21083;50.898;4.902;2024-01-16T01:33:31;1.20;99.90
20654;DHT22;21083;50.898;4.902;2024-01-16T01:35:58;1.20;99.90
20654;DHT22;21083;50.898;4.902;2024-01-16T01:38:25;1.20;99.90
20654;DHT22;21083;50.898;4.902;2024-01-16T01:40:52;1.10;99.90
20654;DHT22;21083;50.898;4.902;2024-01-16T01:43:22;1.10;99.90
20654;DHT22;21083;50.898;4.902;2024-01-16T01:46:11;1.10;99.90
20654;DHT22;21083;50.898;4.902;2024-01-16T01:48:45;1.10;99.90
20654;DHT22;21083;50.898;4.902;2024-01-16T01:51:16;1.10;99.90
20654;DHT22;21083;50.898;4.902;2024-01-16T01:53:44;1.10;99.90
20654;DHT22;21083;50.898;4.902;2024-01-16T01:56:14;1.10;99.90
20654;DHT22;21083;50.898;4.902;2024-01-16T01:58:44;1.10;99.90
20654;DHT22;21083;50.898;4.902;2024-01-16T02:01:14;1.20;99.90
20654;DHT22;21083;50.898;4.902;2024-01-16T02:03:46;1.20;99.90
20654;DHT22;21083;50.898;4.902;2024-01-16T02:06:14;1.20;99.90
20654;DHT22;21083;50.898;4.902;2024-01-16T02:08:43;1.10;99.90
20654;DHT22;21083;50.898;4.902;2024-01-16T02:11:14;1.10;99.90
20654;DHT22;21083;50.898;4.902;2024-01-16T02:13:42;1.10;99.90
20654;DHT22;21083;50.898;4.902;2024-01-16T02:16:18;1.10;99.90
20654;DHT22;21083;50.898;4.902;2024-01-16T02:18:47;1.10;99.90
20654;DHT22;21083;50.898;4.902;2024-01-16T02:21:17;1.10;99.90
20654;DHT22;21083;50.898;4.902;2024-01-16T02:23:47;1.10;99.90
20654;DHT22;21083;50.898;4.902;2024-01-16T02:26:15;1.10;99.90
20654;DHT22;21083;50.898;4.902;2024-01-16T02:28:42;1.00;99.90
20654;DHT22;21083;50.898;4.902;2024-01-16T02:31:11;1.00;99.90
20654;DHT22;21083;50.898;4.902;2024-01-16T02:33:44;0.80;99.90
20654;DHT22;21083;50.898;4.902;2024-01-16T02:36:12;0.90;99.90
20654;DHT22;21083;50.898;4.902;2024-01-16T02:38:39;0.90;99.90
20654;DHT22;21083;50.898;4.902;2024-01-16T02:41:08;0.90;99.90
20654;DHT22;21083;50.898;4.902;2024-01-16T02:43:35;0.90;99.90
20654;DHT22;21083;50.898;4.902;2024-01-16T02:46:02;0.90;99.90
20654;DHT22;21083;50.898;4.902;2024-01-16T02:48:30;0.80;99.90
20654;DHT22;21083;50.898;4.902;2024-01-16T02:50:57;0.80;99.90
20654;DHT22;21083;50.898;4.902;2024-01-16T02:53:25;0.80;99.90
20654;DHT22;21083;50.898;4.902;2024-01-16T02:55:53;0.70;99.90
20654;DHT22;21083;50.898;4.902;2024-01-16T02:58:22;0.80;99.90
20654;DHT22;21083;50.898;4.902;2024-01-16T03:00:49;0.90;99.90
20654;DHT22;21083;50.898;4.902;2024-01-16T03:03:17;1.00;99.90
20654;DHT22;21083;50.898;4.902;2024-01-16T03:05:44;1.00;99.90
20654;DHT22;21083;50.898;4.902;2024-01-16T03:08:13;1.00;99.90
20654;DHT22;21083;50.898;4.902;2024-01-16T03:10:41;0.80;99.90
20654;DHT22;21083;50.898;4.902;2024-01-16T03:13:14;0.90;99.90
20654;DHT22;21083;50.898;4.902;2024-01-16T03:15:42;0.90;99.90
20654;DHT22;21083;50.898;4.902;2024-01-16T03:18:09;0.80;99.90
20654;DHT22;21083;50.898;4.902;2024-01-16T03:20:37;0.80;99.90
20654;DHT22;21083;50.898;4.902;2024-01-16T03:23:04;0.80;99.90
20654;DHT22;21083;50.898;4.902;2024-01-16T03:25:31;0.70;99.90
20654;DHT22;21083;50.898;4.902;2024-01-16T03:28:05;0.50;99.90
20654;DHT22;21083;50.898;4.902;2024-01-16T03:30:34;0.50;99.90
20654;DHT22;21083;50.898;4.902;2024-01-16T03:33:04;0.50;99.90
20654;DHT22;21083;50.898;4.902;2024-01-16T03:35:31;0.40;99.90
20654;DHT22;21083;50.898;4.902;2024-01-16T03:37:59;0.30;99.90
20654;DHT22;21083;50.898;4.902;2024-01-16T03:40:29;0.40;99.90
20654;DHT22;21083;50.898;4.902;2024-01-16T03:42:59;0.50;99.90
20654;DHT22;21083;50.898;4.902;2024-01-16T03:45:32;0.50;99.90
20654;DHT22;21083;50.898;4.902;2024-01-16T03:48:07;0.50;99.90
20654;DHT22;21083;50.898;4.902;2024-01-16T03:50:36;0.40;99.90
20654;DHT22;21083;50.898;4.902;2024-01-16T03:53:04;0.40;99.90
20654;DHT22;21083;50.898;4.902;2024-01-16T03:55:34;0.50;99.90
20654;DHT22;21083;50.898;4.902;2024-01-16T03:58:01;0.40;99.90
20654;DHT22;21083;50.898;4.902;2024-01-16T04:00:28;0.50;99.90
20654;DHT22;21083;50.898;4.902;2024-01-16T04:02:55;0.40;99.90
20654;DHT22;21083;50.898;4.902;2024-01-16T04:05:30;0.30;99.90
20654;DHT22;21083;50.898;4.902;2024-01-16T04:07:57;0.20;99.90
20654;DHT22;21083;50.898;4.902;2024-01-16T04:10:26;0.20;99.90
20654;DHT22;21083;50.898;4.902;2024-01-16T04:12:54;0.20;99.90
20654;DHT22;21083;50.898;4.902;2024-01-16T04:15:23;0.30;99.90
20654;DHT22;21083;50.898;4.902;2024-01-16T04:17:52;0.30;99.90
20654;DHT22;21083;50.898;4.902;2024-01-16T04:20:20;0.40;99.90
20654;DHT22;21083;50.898;4.902;2024-01-16T04:22:50;0.50;99.90
20654;DHT22;21083;50.898;4.902;2024-01-16T04:25:17;0.40;99.90
20654;DHT22;21083;50.898;4.902;2024-01-16T04:27:45;0.30;99.90
20654;DHT22;21083;50.898;4.902;2024-01-16T04:30:13;0.40;99.90
20654;DHT22;21083;50.898;4.902;2024-01-16T04:32:40;0.20;99.90
20654;DHT22;21083;50.898;4.902;2024-01-16T04:35:07;0.20;99.90
20654;DHT22;21083;50.898;4.902;2024-01-16T04:37:34;0.20;99.90
20654;DHT22;21083;50.898;4.902;2024-01-16T04:40:04;0.20;99.90
20654;DHT22;21083;50.898;4.902;2024-01-16T04:42:32;0.20;99.90
20654;DHT22;21083;50.898;4.902;2024-01-16T04:44:59;0.20;99.90
20654;DHT22;21083;50.898;4.902;2024-01-16T04:47:27;0.10;99.90
20654;DHT22;21083;50.898;4.902;2024-01-16T04:49:54;0.10;99.90
20654;DHT22;21083;50.898;4.902;2024-01-16T04:52:23;0.00;99.90
20654;DHT22;21083;50.898;4.902;2024-01-16T04:54:53;0.10;99.90
20654;DHT22;21083;50.898;4.902;2024-01-16T04:57:23;0.10;99.90
20654;DHT22;21083;50.898;4.902;2024-01-16T04:59:50;0.00;99.90
20654;DHT22;21083;50.898;4.902;2024-01-16T05:02:17;-0.10;99.90
20654;DHT22;21083;50.898;4.902;2024-01-16T05:04:44;-0.10;99.90
20654;DHT22;21083;50.898;4.902;2024-01-16T05:07:12;-0.10;99.90
20654;DHT22;21083;50.898;4.902;2024-01-16T05:09:41;-0.10;99.90
20654;DHT22;21083;50.898;4.902;2024-01-16T05:12:08;-0.20;99.90
20654;DHT22;21083;50.898;4.902;2024-01-16T05:14:40;-0.30;99.90
20654;DHT22;21083;50.898;4.902;2024-01-16T05:17:07;-0.30;99.90
20654;DHT22;21083;50.898;4.902;2024-01-16T05:19:34;-0.30;99.90
20654;DHT22;21083;50.898;4.902;2024-01-16T05:22:01;-0.30;99.90
20654;DHT22;21083;50.898;4.902;2024-01-16T05:24:29;-0.30;99.90
20654;DHT22;21083;50.898;4.902;2024-01-16T05:26:56;-0.30;99.90
20654;DHT22;21083;50.898;4.902;2024-01-16T05:29:24;-0.30;99.90
20654;DHT22;21083;50.898;4.902;2024-01-16T05:32:00;-0.30;99.90
20654;DHT22;21083;50.898;4.902;2024-01-16T05:34:28;-0.30;99.90
20654;DHT22;21083;50.898;4.902;2024-01-16T05:36:56;-0.30;99.90
20654;DHT22;21083;50.898;4.902;2024-01-16T05:39:23;-0.20;99.90
20654;DHT22;21083;50.898;4.902;2024-01-16T05:41:52;-0.30;99.90
20654;DHT22;21083;50.898;4.902;2024-01-16T05:44:27;-0.30;99.90
20654;DHT22;21083;50.898;4.902;2024-01-16T05:46:54;-0.40;99.90
20654;DHT22;21083;50.898;4.902;2024-01-16T05:49:22;-0.50;99.90
20654;DHT22;21083;50.898;4.902;2024-01-16T05:51:49;-0.50;99.90
20654;DHT22;21083;50.898;4.902;2024-01-16T05:54:19;-0.50;99.90
20654;DHT22;21083;50.898;4.902;2024-01-16T05:56:46;-0.50;99.90
20654;DHT22;21083;50.898;4.902;2024-01-16T05:59:13;-0.40;99.90
20654;DHT22;21083;50.898;4.902;2024-01-16T06:01:40;-0.60;99.90
20654;DHT22;21083;50.898;4.902;2024-01-16T06:04:07;-0.60;99.90
20654;DHT22;21083;50.898;4.902;2024-01-16T06:06:35;-0.70;99.90
20654;DHT22;21083;50.898;4.902;2024-01-16T06:09:02;-0.80;99.90
20654;DHT22;21083;50.898;4.902;2024-01-16T06:11:31;-0.80;99.90
20654;DHT22;21083;50.898;4.902;2024-01-16T06:13:58;-0.70;99.90
20654;DHT22;21083;50.898;4.902;2024-01-16T06:16:26;-0.70;99.90
20654;DHT22;21083;50.898;4.902;2024-01-16T06:18:53;-0.70;99.90
20654;DHT22;21083;50.898;4.902;2024-01-16T06:21:20;-0.70;99.90
20654;DHT22;21083;50.898;4.902;2024-01-16T06:23:48;-0.70;99.90
20654;DHT22;21083;50.898;4.902;2024-01-16T06:26:16;-0.60;99.90
20654;DHT22;21083;50.898;4.902;2024-01-16T06:28:43;-0.70;99.90
20654;DHT22;21083;50.898;4.902;2024-01-16T06:31:10;-0.70;99.90
20654;DHT22;21083;50.898;4.902;2024-01-16T06:33:37;-0.80;99.90
20654;DHT22;21083;50.898;4.902;2024-01-16T06:36:06;-0.80;99.90
20654;DHT22;21083;50.898;4.902;2024-01-16T06:38:33;-0.80;99.90
20654;DHT22;21083;50.898;4.902;2024-01-16T06:41:01;-0.80;99.90
20654;DHT22;21083;50.898;4.902;2024-01-16T06:43:28;-0.80;99.90
20654;DHT22;21083;50.898;4.902;2024-01-16T06:45:55;-0.90;99.90
20654;DHT22;21083;50.898;4.902;2024-01-16T06:48:23;-0.90;99.90
20654;DHT22;21083;50.898;4.902;2024-01-16T06:50:50;-0.80;99.90
20654;DHT22;21083;50.898;4.902;2024-01-16T06:53:17;-0.80;99.90
20654;DHT22;21083;50.898;4.902;2024-01-16T06:55:44;-0.80;99.90
20654;DHT22;21083;50.898;4.902;2024-01-16T06:58:12;-0.80;99.90
20654;DHT22;21083;50.898;4.902;2024-01-16T07:00:40;-0.90;99.90
20654;DHT22;21083;50.898;4.902;2024-01-16T07:03:08;-0.80;99.90
20654;DHT22;21083;50.898;4.902;2024-01-16T07:05:36;-0.80;99.90
20654;DHT22;21083;50.898;4.902;2024-01-16T07:08:03;-0.70;99.90
20654;DHT22;21083;50.898;4.902;2024-01-16T07:10:30;-0.80;99.90
20654;DHT22;21083;50.898;4.902;2024-01-16T07:12:57;-0.70;99.90
20654;DHT22;21083;50.898;4.902;2024-01-16T07:15:26;-0.70;99.90
20654;DHT22;21083;50.898;4.902;2024-01-16T07:17:53;-0.70;99.90
20654;DHT22;21083;50.898;4.902;2024-01-16T07:20:20;-0.70;99.90
20654;DHT22;21083;50.898;4.902;2024-01-16T07:22:47;-0.70;99.90
20654;DHT22;21083;50.898;4.902;2024-01-16T07:25:14;-0.60;99.90
20654;DHT22;21083;50.898;4.902;2024-01-16T07:27:41;-0.60;99.90
20654;DHT22;21083;50.898;4.902;2024-01-16T07:30:12;-0.70;99.90
20654;DHT22;21083;50.898;4.902;2024-01-16T07:32:40;-0.70;99.90
20654;DHT22;21083;50.898;4.902;2024-01-16T07:35:08;-0.80;99.90
20654;DHT22;21083;50.898;4.902;2024-01-16T07:37:35;-0.70;99.90
20654;DHT22;21083;50.898;4.902;2024-01-16T07:40:02;-0.70;99.90
20654;DHT22;21083;50.898;4.902;2024-01-16T07:42:31;-0.80;99.90
20654;DHT22;21083;50.898;4.902;2024-01-16T07:45:00;-0.70;99.90
20654;DHT22;21083;50.898;4.902;2024-01-16T07:47:30;-0.60;99.90
20654;DHT22;21083;50.898;4.902;2024-01-16T07:49:59;-0.50;99.90
20654;DHT22;21083;50.898;4.902;2024-01-16T07:52:27;-0.60;99.90
20654;DHT22;21083;50.898;4.902;2024-01-16T07:54:54;-0.60;99.90
20654;DHT22;21083;50.898;4.902;2024-01-16T07:57:21;-0.70;99.90
20654;DHT22;21083;50.898;4.902;2024-01-16T07:59:48;-0.80;99.90
20654;DHT22;21083;50.898;4.902;2024-01-16T08:02:16;-0.70;99.90
20654;DHT22;21083;50.898;4.902;2024-01-16T08:04:43;-0.60;99.90
20654;DHT22;21083;50.898;4.902;2024-01-16T08:07:11;-0.60;99.90
20654;DHT22;21083;50.898;4.902;2024-01-16T08:09:38;-0.70;99.90
20654;DHT22;21083;50.898;4.902;2024-01-16T08:12:06;-0.60;99.90
20654;DHT22;21083;50.898;4.902;2024-01-16T08:14:33;-0.60;99.90
20654;DHT22;21083;50.898;4.902;2024-01-16T08:17:00;-0.60;99.90
20654;DHT22;21083;50.898;4.902;2024-01-16T08:19:27;-0.60;99.90
20654;DHT22;21083;50.898;4.902;2024-01-16T08:21:54;-0.60;99.90
20654;DHT22;21083;50.898;4.902;2024-01-16T08:24:23;-0.60;99.90
20654;DHT22;21083;50.898;4.902;2024-01-16T08:26:50;-0.50;99.90
20654;DHT22;21083;50.898;4.902;2024-01-16T08:29:17;-0.60;99.90
20654;DHT22;21083;50.898;4.902;2024-01-16T08:31:44;-0.50;99.90
20654;DHT22;21083;50.898;4.902;2024-01-16T08:34:11;-0.40;99.90
20654;DHT22;21083;50.898;4.902;2024-01-16T08:36:38;-0.40;99.90
20654;DHT22;21083;50.898;4.902;2024-01-16T08:39:05;-0.40;99.90
20654;DHT22;21083;50.898;4.902;2024-01-16T08:41:34;-0.40;99.90
20654;DHT22;21083;50.898;4.902;2024-01-16T08:44:01;-0.50;99.90
20654;DHT22;21083;50.898;4.902;2024-01-16T08:46:28;-0.50;99.90
20654;DHT22;21083;50.898;4.902;2024-01-16T08:48:55;-0.50;99.90
20654;DHT22;21083;50.898;4.902;2024-01-16T08:51:23;-0.50;99.90
20654;DHT22;21083;50.898;4.902;2024-01-16T08:53:51;-0.50;99.90
20654;DHT22;21083;50.898;4.902;2024-01-16T08:56:18;-0.50;99.90
20654;DHT22;21083;50.898;4.902;2024-01-16T08:58:47;-0.50;99.90
20654;DHT22;21083;50.898;4.902;2024-01-16T09:01:14;-0.50;99.90
20654;DHT22;21083;50.898;4.902;2024-01-16T09:03:41;-0.30;99.90
20654;DHT22;21083;50.898;4.902;2024-01-16T09:06:09;-0.20;99.90
20654;DHT22;21083;50.898;4.902;2024-01-16T09:08:37;-0.20;99.90
20654;DHT22;21083;50.898;4.902;2024-01-16T09:11:04;-0.10;99.90
20654;DHT22;21083;50.898;4.902;2024-01-16T09:13:31;-0.10;99.90
20654;DHT22;21083;50.898;4.902;2024-01-16T09:15:59;-0.10;99.90
20654;DHT22;21083;50.898;4.902;2024-01-16T09:18:26;-0.20;99.90
20654;DHT22;21083;50.898;4.902;2024-01-16T09:20:53;-0.10;99.90
20654;DHT22;21083;50.898;4.902;2024-01-16T09:23:20;-0.20;99.90
20654;DHT22;21083;50.898;4.902;2024-01-16T09:25:47;-0.10;99.90
20654;DHT22;21083;50.898;4.902;2024-01-16T09:28:15;-0.10;99.90
20654;DHT22;21083;50.898;4.902;2024-01-16T09:30:42;0.00;99.90
20654;DHT22;21083;50.898;4.902;2024-01-16T09:33:11;0.00;99.90
20654;DHT22;21083;50.898;4.902;2024-01-16T09:35:39;0.00;99.90
20654;DHT22;21083;50.898;4.902;2024-01-16T09:38:06;0.00;99.90
20654;DHT22;21083;50.898;4.902;2024-01-16T09:40:33;0.10;99.90
20654;DHT22;21083;50.898;4.902;2024-01-16T09:43:01;-0.10;99.90
20654;DHT22;21083;50.898;4.902;2024-01-16T09:45:30;-0.10;99.90
20654;DHT22;21083;50.898;4.902;2024-01-16T09:47:59;-0.10;99.90
20654;DHT22;21083;50.898;4.902;2024-01-16T09:50:27;0.00;99.90
20654;DHT22;21083;50.898;4.902;2024-01-16T09:52:54;0.00;99.90
20654;DHT22;21083;50.898;4.902;2024-01-16T09:55:21;0.10;99.90
20654;DHT22;21083;50.898;4.902;2024-01-16T09:57:52;0.20;99.90
20654;DHT22;21083;50.898;4.902;2024-01-16T10:00:19;0.30;99.90
20654;DHT22;21083;50.898;4.902;2024-01-16T10:02:47;0.30;99.90
20654;DHT22;21083;50.898;4.902;2024-01-16T10:05:14;0.10;99.90
20654;DHT22;21083;50.898;4.902;2024-01-16T10:07:42;0.20;99.90
20654;DHT22;21083;50.898;4.902;2024-01-16T10:10:10;0.40;99.90
20654;DHT22;21083;50.898;4.902;2024-01-16T10:12:38;0.40;99.90
20654;DHT22;21083;50.898;4.902;2024-01-16T10:15:07;0.70;99.90
20654;DHT22;21083;50.898;4.902;2024-01-16T10:17:38;0.90;99.90
20654;DHT22;21083;50.898;4.902;2024-01-16T10:20:06;0.90;99.90
20654;DHT22;21083;50.898;4.902;2024-01-16T10:22:39;0.90;99.90
20654;DHT22;21083;50.898;4.902;2024-01-16T10:25:09;0.90;99.90
20654;DHT22;21083;50.898;4.902;2024-01-16T10:27:38;0.90;99.90
20654;DHT22;21083;50.898;4.902;2024-01-16T10:30:06;0.90;99.90
20654;DHT22;21083;50.898;4.902;2024-01-16T10:32:35;1.20;99.90
20654;DHT22;21083;50.898;4.902;2024-01-16T10:35:07;1.30;99.90
20654;DHT22;21083;50.898;4.902;2024-01-16T10:37:42;1.40;99.90
20654;DHT22;21083;50.898;4.902;2024-01-16T10:40:15;1.60;99.90
20654;DHT22;21083;50.898;4.902;2024-01-16T10:42:44;1.80;99.90
20654;DHT22;21083;50.898;4.902;2024-01-16T10:45:17;1.90;99.90
20654;DHT22;21083;50.898;4.902;2024-01-16T10:47:46;1.90;99.90
20654;DHT22;21083;50.898;4.902;2024-01-16T10:50:13;1.90;99.90
20654;DHT22;21083;50.898;4.902;2024-01-16T10:52:46;2.30;99.90
20654;DHT22;21083;50.898;4.902;2024-01-16T10:55:20;2.50;99.90
20654;DHT22;21083;50.898;4.902;2024-01-16T10:57:48;2.80;99.90
20654;DHT22;21083;50.898;4.902;2024-01-16T11:00:19;2.90;99.90
20654;DHT22;21083;50.898;4.902;2024-01-16T11:02:51;3.10;99.90
20654;DHT22;21083;50.898;4.902;2024-01-16T11:05:19;3.40;99.90
20654;DHT22;21083;50.898;4.902;2024-01-16T11:07:48;3.60;99.90
20654;DHT22;21083;50.898;4.902;2024-01-16T11:10:18;3.70;99.90
20654;DHT22;21083;50.898;4.902;2024-01-16T11:12:46;3.60;99.90
20654;DHT22;21083;50.898;4.902;2024-01-16T11:15:14;3.80;99.90
20654;DHT22;21083;50.898;4.902;2024-01-16T11:17:44;4.10;99.90
20654;DHT22;21083;50.898;4.902;2024-01-16T11:20:12;3.80;99.90
20654;DHT22;21083;50.898;4.902;2024-01-16T11:22:42;4.40;99.90
20654;DHT22;21083;50.898;4.902;2024-01-16T11:25:10;4.60;99.90
20654;DHT22;21083;50.898;4.902;2024-01-16T11:27:41;4.80;99.90
20654;DHT22;21083;50.898;4.902;2024-01-16T11:30:09;5.20;99.90
20654;DHT22;21083;50.898;4.902;2024-01-16T11:32:37;4.60;99.90
20654;DHT22;21083;50.898;4.902;2024-01-16T11:35:06;4.80;99.90
20654;DHT22;21083;50.898;4.902;2024-01-16T11:37:34;5.00;99.90
20654;DHT22;21083;50.898;4.902;2024-01-16T11:40:25;5.60;99.90
20654;DHT22;21083;50.898;4.902;2024-01-16T11:42:55;5.70;99.90
20654;DHT22;21083;50.898;4.902;2024-01-16T11:45:47;5.90;99.90
20654;DHT22;21083;50.898;4.902;2024-01-16T11:48:16;6.10;99.90
20654;DHT22;21083;50.898;4.902;2024-01-16T11:50:43;6.70;99.90
20654;DHT22;21083;50.898;4.902;2024-01-16T11:53:11;6.70;99.90
20654;DHT22;21083;50.898;4.902;2024-01-16T11:59:01;7.20;99.90
20654;DHT22;21083;50.898;4.902;2024-01-16T12:01:35;7.60;99.90
20654;DHT22;21083;50.898;4.902;2024-01-16T12:04:03;7.80;99.90
20654;DHT22;21083;50.898;4.902;2024-01-16T12:06:30;7.90;99.90
20654;DHT22;21083;50.898;4.902;2024-01-16T12:09:11;8.10;99.90
20654;DHT22;21083;50.898;4.902;2024-01-16T12:11:39;9.10;99.90
20654;DHT22;21083;50.898;4.902;2024-01-16T12:14:08;8.60;99.90
20654;DHT22;21083;50.898;4.902;2024-01-16T12:16:35;8.30;99.90
20654;DHT22;21083;50.898;4.902;2024-01-16T12:19:06;8.20;99.90
20654;DHT22;21083;50.898;4.902;2024-01-16T12:21:34;8.40;99.90
20654;DHT22;21083;50.898;4.902;2024-01-16T12:24:02;8.00;99.90
20654;DHT22;21083;50.898;4.902;2024-01-16T12:26:30;7.50;99.90
20654;DHT22;21083;50.898;4.902;2024-01-16T12:28:58;7.70;99.90
20654;DHT22;21083;50.898;4.902;2024-01-16T12:31:27;8.40;99.90
20654;DHT22;21083;50.898;4.902;2024-01-16T12:34:04;9.20;99.90
20654;DHT22;21083;50.898;4.902;2024-01-16T12:36:33;9.40;99.90
20654;DHT22;21083;50.898;4.902;2024-01-16T12:39:00;10.30;99.90
20654;DHT22;21083;50.898;4.902;2024-01-16T12:41:30;11.00;99.90
20654;DHT22;21083;50.898;4.902;2024-01-16T12:44:00;11.70;99.90
20654;DHT22;21083;50.898;4.902;2024-01-16T12:46:28;10.80;99.90
20654;DHT22;21083;50.898;4.902;2024-01-16T12:49:01;9.90;99.90
20654;DHT22;21083;50.898;4.902;2024-01-16T12:51:30;10.20;99.90
20654;DHT22;21083;50.898;4.902;2024-01-16T12:54:10;10.20;99.90
20654;DHT22;21083;50.898;4.902;2024-01-16T12:56:38;9.90;99.90
20654;DHT22;21083;50.898;4.902;2024-01-16T12:59:09;10.60;99.90
20654;DHT22;21083;50.898;4.902;2024-01-16T13:01:41;10.40;99.90
20654;DHT22;21083;50.898;4.902;2024-01-16T13:04:09;10.30;99.90
20654;DHT22;21083;50.898;4.902;2024-01-16T13:06:37;10.00;99.90
20654;DHT22;21083;50.898;4.902;2024-01-16T13:09:06;10.30;99.90
20654;DHT22;21083;50.898;4.902;2024-01-16T13:11:46;10.40;99.90
20654;DHT22;21083;50.898;4.902;2024-01-16T13:14:13;10.80;99.90
20654;DHT22;21083;50.898;4.902;2024-01-16T13:16:41;11.40;99.90
20654;DHT22;21083;50.898;4.902;2024-01-16T13:19:11;11.70;99.90
20654;DHT22;21083;50.898;4.902;2024-01-16T13:21:38;12.10;99.90
20654;DHT22;21083;50.898;4.902;2024-01-16T13:24:06;12.10;99.90
20654;DHT22;21083;50.898;4.902;2024-01-16T13:26:35;12.10;99.90
20654;DHT22;21083;50.898;4.902;2024-01-16T13:29:03;11.90;99.90
20654;DHT22;21083;50.898;4.902;2024-01-16T13:31:31;12.20;99.90
20654;DHT22;21083;50.898;4.902;2024-01-16T13:34:00;11.80;99.90
20654;DHT22;21083;50.898;4.902;2024-01-16T13:36:27;11.90;99.90
20654;DHT22;21083;50.898;4.902;2024-01-16T13:38:55;11.80;99.90
20654;DHT22;21083;50.898;4.902;2024-01-16T13:41:22;11.90;99.90
20654;DHT22;21083;50.898;4.902;2024-01-16T13:43:49;11.60;99.90
20654;DHT22;21083;50.898;4.902;2024-01-16T13:46:16;10.90;99.90
20654;DHT22;21083;50.898;4.902;2024-01-16T13:48:44;11.90;99.90
20654;DHT22;21083;50.898;4.902;2024-01-16T13:51:12;12.00;99.90
20654;DHT22;21083;50.898;4.902;2024-01-16T13:53:41;11.90;99.90
20654;DHT22;21083;50.898;4.902;2024-01-16T13:56:08;12.30;99.90
20654;DHT22;21083;50.898;4.902;2024-01-16T13:58:36;12.50;99.90
20654;DHT22;21083;50.898;4.902;2024-01-16T14:01:03;12.80;99.90
20654;DHT22;21083;50.898;4.902;2024-01-16T14:03:30;13.40;99.90
20654;DHT22;21083;50.898;4.902;2024-01-16T14:05:57;12.80;99.90
20654;DHT22;21083;50.898;4.902;2024-01-16T14:08:26;13.10;99.90
20654;DHT22;21083;50.898;4.902;2024-01-16T14:10:53;13.00;99.90
20654;DHT22;21083;50.898;4.902;2024-01-16T14:13:21;12.80;99.90
20654;DHT22;21083;50.898;4.902;2024-01-16T14:15:50;12.80;99.90
20654;DHT22;21083;50.898;4.902;2024-01-16T14:18:17;12.80;99.90
20654;DHT22;21083;50.898;4.902;2024-01-16T14:20:45;13.10;99.90
20654;DHT22;21083;50.898;4.902;2024-01-16T14:23:12;13.30;99.90
20654;DHT22;21083;50.898;4.902;2024-01-16T14:25:40;13.40;99.90
20654;DHT22;21083;50.898;4.902;2024-01-16T14:28:07;13.80;99.90
20654;DHT22;21083;50.898;4.902;2024-01-16T14:30:36;13.20;99.90
20654;DHT22;21083;50.898;4.902;2024-01-16T14:33:04;14.20;99.90
20654;DHT22;21083;50.898;4.902;2024-01-16T14:35:32;14.80;99.90
20654;DHT22;21083;50.898;4.902;2024-01-16T14:37:59;14.90;99.90
20654;DHT22;21083;50.898;4.902;2024-01-16T14:40:26;14.90;99.90
20654;DHT22;21083;50.898;4.902;2024-01-16T14:42:55;15.10;99.90
20654;DHT22;21083;50.898;4.902;2024-01-16T14:45:24;15.20;99.90
20654;DHT22;21083;50.898;4.902;2024-01-16T14:47:53;14.40;99.90
20654;DHT22;21083;50.898;4.902;2024-01-16T14:50:20;14.90;99.90
20654;DHT22;21083;50.898;4.902;2024-01-16T14:52:48;15.60;99.90
20654;DHT22;21083;50.898;4.902;2024-01-16T14:55:16;15.40;99.90
20654;DHT22;21083;50.898;4.902;2024-01-16T14:57:43;15.70;99.90
20654;DHT22;21083;50.898;4.902;2024-01-16T15:00:14;15.00;99.90
20654;DHT22;21083;50.898;4.902;2024-01-16T15:02:45;13.60;99.90
20654;DHT22;21083;50.898;4.902;2024-01-16T15:05:13;12.70;99.90
20654;DHT22;21083;50.898;4.902;2024-01-16T15:07:40;11.60;99.90
20654;DHT22;21083;50.898;4.902;2024-01-16T15:10:09;11.40;99.90
20654;DHT22;21083;50.898;4.902;2024-01-16T15:12:38;11.70;99.90
20654;DHT22;21083;50.898;4.902;2024-01-16T15:15:06;12.10;99.90
20654;DHT22;21083;50.898;4.902;2024-01-16T15:17:37;12.50;99.90
20654;DHT22;21083;50.898;4.902;2024-01-16T15:20:05;13.20;99.90
20654;DHT22;21083;50.898;4.902;2024-01-16T15:22:34;13.40;99.90
20654;DHT22;21083;50.898;4.902;2024-01-16T15:25:03;13.30;99.90
20654;DHT22;21083;50.898;4.902;2024-01-16T15:27:32;13.20;99.90
20654;DHT22;21083;50.898;4.902;2024-01-16T15:29:59;12.80;99.90
20654;DHT22;21083;50.898;4.902;2024-01-16T15:32:26;12.40;99.90
20654;DHT22;21083;50.898;4.902;2024-01-16T15:34:54;11.80;99.90
20654;DHT22;21083;50.898;4.902;2024-01-16T15:37:21;11.10;99.90
20654;DHT22;21083;50.898;4.902;2024-01-16T15:39:49;10.40;99.90
20654;DHT22;21083;50.898;4.902;2024-01-16T15:42:16;9.90;99.90
20654;DHT22;21083;50.898;4.902;2024-01-16T15:44:43;9.40;99.90
20654;DHT22;21083;50.898;4.902;2024-01-16T15:47:10;8.40;99.90
20654;DHT22;21083;50.898;4.902;2024-01-16T15:49:37;7.90;99.90
20654;DHT22;21083;50.898;4.902;2024-01-16T15:52:06;7.10;99.90